Hagatna, GU

3:32 AM ChST on April 26, 2017 (GMT +1000)
Maite | | Change Station

Elev 140 ft 13.48 °N, 144.76 °E | Updated 8 seconds ago

Rain
Rain
74.2 °F
Feels Like 71 °F
N
0.0
Wind Variable Wind from SSW
Gusts 2.0 mph

Today
High -- | Low -- °F
--% Chance of Precip.
Yesterday
High -- | Low -- °F
Precip. -- in
Pressure 29.92 in
Visibility 2.5 miles
Clouds Few 800 ft
Scattered Clouds 4900 ft
Overcast 8000 ft
Heat Index 71 °F
Dew Point 73 °F
Humidity 97%
Rainfall 0.97 in
Snow Depth Not available.
6:02 AM 6:35 PM
Waning Crescent, 1% visible
METAR PGUM 251711Z 00000KT 2 1/2SM +RA BR FEW008 SCT049 OVC080 24/24 A2992 RMK AO2 P0006 $
Pressure 29.92 in
Visibility 2.5 miles
Clouds Few 800 ft
Scattered Clouds 4900 ft
Overcast 8000 ft
Heat Index 71 °F
Dew Point 73 °F
Humidity 97%
Rainfall 0.97 in
Snow Depth Not available.
6:02 AM 6:35 PM
Waning Crescent, 1% visible
METAR PGUM 251711Z 00000KT 2 1/2SM +RA BR FEW008 SCT049 OVC080 24/24 A2992 RMK AO2 P0006 $

Get Severe Weather Alerts

Thanks for signing up!

Be on the lookout for a verification email in your inbox.

You'll start receiving the daily forecast at 8 AM.

×

10-Day Weather Forecast

Almanac

Astronomy

Apr. 26, 2017 Rise Set
Actual Time
Civil Twilight
Nautical Twilight
Astronomical Twilight
Moon
Length of Visible Light
Length of Day
Tomorrow will be .
, % of the Moon is Illuminated

Today's Extremes

State Highs State Lows

Community

WunderPhotos

WunderBlog® & News

Nearby

Air Quality

  Air Quality AQ Index Pollutant
Not available.

Snow Depth

Station Depth Elevation

Earthquake Activity

City Distance Mag. Time & Date
Minimum magnitude displayed is 2.5.

Coastal Water Temperatures

Place Temperature

Stations

Nearby Weather Stations

Station Location Temp. Windchill Dew Point Humidity Wind Precip. Elev Updated Type
                   

Watches & Warnings

There are currently no watches in effect.